sensor_id;sensor_type;location;lat;lon;timestamp;P1;durP1;ratioP1;P2;durP2;ratioP2
51020;SDS011;38907;45.562;8.856;2022-12-18T00:04:16;34.88;;;22.48;;
51020;SDS011;38907;45.562;8.856;2022-12-18T00:09:22;33.95;;;22.10;;
51020;SDS011;38907;45.562;8.856;2022-12-18T00:14:24;33.15;;;22.02;;
51020;SDS011;38907;45.562;8.856;2022-12-18T00:19:26;31.63;;;19.80;;
51020;SDS011;38907;45.562;8.856;2022-12-18T00:24:29;33.63;;;22.48;;
51020;SDS011;38907;45.562;8.856;2022-12-18T00:29:31;31.88;;;21.52;;
51020;SDS011;38907;45.562;8.856;2022-12-18T00:34:33;31.50;;;22.08;;
51020;SDS011;38907;45.562;8.856;2022-12-18T00:39:37;29.05;;;18.77;;
51020;SDS011;38907;45.562;8.856;2022-12-18T00:44:39;31.13;;;19.02;;
51020;SDS011;38907;45.562;8.856;2022-12-18T00:49:40;27.60;;;18.58;;
51020;SDS011;38907;45.562;8.856;2022-12-18T00:54:44;29.38;;;20.63;;
51020;SDS011;38907;45.562;8.856;2022-12-18T00:59:45;29.45;;;19.33;;
51020;SDS011;38907;45.562;8.856;2022-12-18T01:04:47;32.58;;;20.50;;
51020;SDS011;38907;45.562;8.856;2022-12-18T01:09:50;28.02;;;19.55;;
51020;SDS011;38907;45.562;8.856;2022-12-18T01:14:52;26.50;;;18.38;;
51020;SDS011;38907;45.562;8.856;2022-12-18T01:19:54;28.90;;;18.63;;
51020;SDS011;38907;45.562;8.856;2022-12-18T01:24:57;28.02;;;17.92;;
51020;SDS011;38907;45.562;8.856;2022-12-18T01:29:59;29.38;;;18.27;;
51020;SDS011;38907;45.562;8.856;2022-12-18T01:35:01;26.90;;;17.42;;
51020;SDS011;38907;45.562;8.856;2022-12-18T01:40:06;24.77;;;18.08;;
51020;SDS011;38907;45.562;8.856;2022-12-18T01:45:21;25.58;;;17.17;;
51020;SDS011;38907;45.562;8.856;2022-12-18T01:50:27;26.02;;;17.67;;
51020;SDS011;38907;45.562;8.856;2022-12-18T01:55:35;29.88;;;18.33;;
51020;SDS011;38907;45.562;8.856;2022-12-18T02:00:43;27.25;;;17.63;;
51020;SDS011;38907;45.562;8.856;2022-12-18T02:05:46;26.65;;;17.02;;
51020;SDS011;38907;45.562;8.856;2022-12-18T02:10:59;30.25;;;18.83;;
51020;SDS011;38907;45.562;8.856;2022-12-18T02:16:07;26.10;;;17.83;;
51020;SDS011;38907;45.562;8.856;2022-12-18T02:21:20;35.25;;;20.40;;
51020;SDS011;38907;45.562;8.856;2022-12-18T02:26:31;33.92;;;20.88;;
51020;SDS011;38907;45.562;8.856;2022-12-18T02:31:39;47.17;;;22.77;;
51020;SDS011;38907;45.562;8.856;2022-12-18T02:36:44;43.42;;;22.08;;
51020;SDS011;38907;45.562;8.856;2022-12-18T02:41:50;41.38;;;21.42;;
51020;SDS011;38907;45.562;8.856;2022-12-18T02:46:53;42.10;;;21.10;;
51020;SDS011;38907;45.562;8.856;2022-12-18T02:51:56;46.30;;;23.42;;
51020;SDS011;38907;45.562;8.856;2022-12-18T02:57:09;45.00;;;23.05;;
51020;SDS011;38907;45.562;8.856;2022-12-18T03:02:17;62.58;;;23.70;;
51020;SDS011;38907;45.562;8.856;2022-12-18T03:07:26;108.93;;;24.73;;
51020;SDS011;38907;45.562;8.856;2022-12-18T03:12:35;90.13;;;25.25;;
51020;SDS011;38907;45.562;8.856;2022-12-18T03:17:41;60.97;;;24.27;;
51020;SDS011;38907;45.562;8.856;2022-12-18T03:22:46;70.13;;;24.48;;
51020;SDS011;38907;45.562;8.856;2022-12-18T03:27:54;95.35;;;25.05;;
51020;SDS011;38907;45.562;8.856;2022-12-18T03:33:01;59.05;;;24.48;;
51020;SDS011;38907;45.562;8.856;2022-12-18T03:38:07;167.68;;;27.48;;
51020;SDS011;38907;45.562;8.856;2022-12-18T03:43:11;119.22;;;28.38;;
51020;SDS011;38907;45.562;8.856;2022-12-18T03:48:22;159.15;;;30.42;;
51020;SDS011;38907;45.562;8.856;2022-12-18T03:53:32;102.30;;;25.85;;
51020;SDS011;38907;45.562;8.856;2022-12-18T03:58:41;69.68;;;25.95;;
51020;SDS011;38907;45.562;8.856;2022-12-18T04:03:44;84.93;;;27.10;;
51020;SDS011;38907;45.562;8.856;2022-12-18T04:08:50;154.82;;;28.63;;
51020;SDS011;38907;45.562;8.856;2022-12-18T04:13:56;67.82;;;25.13;;
51020;SDS011;38907;45.562;8.856;2022-12-18T04:18:58;64.85;;;26.33;;
51020;SDS011;38907;45.562;8.856;2022-12-18T04:24:00;63.33;;;26.10;;
51020;SDS011;38907;45.562;8.856;2022-12-18T04:29:03;91.28;;;26.90;;
51020;SDS011;38907;45.562;8.856;2022-12-18T04:34:05;64.13;;;27.42;;
51020;SDS011;38907;45.562;8.856;2022-12-18T04:39:07;74.38;;;27.38;;
51020;SDS011;38907;45.562;8.856;2022-12-18T04:44:10;84.28;;;29.42;;
51020;SDS011;38907;45.562;8.856;2022-12-18T04:49:12;122.90;;;29.13;;
51020;SDS011;38907;45.562;8.856;2022-12-18T04:54:14;124.72;;;28.17;;
51020;SDS011;38907;45.562;8.856;2022-12-18T04:59:17;72.25;;;26.40;;
51020;SDS011;38907;45.562;8.856;2022-12-18T05:04:20;69.45;;;26.27;;
51020;SDS011;38907;45.562;8.856;2022-12-18T05:09:22;87.53;;;28.20;;
51020;SDS011;38907;45.562;8.856;2022-12-18T05:14:26;71.30;;;26.90;;
51020;SDS011;38907;45.562;8.856;2022-12-18T05:19:29;57.95;;;26.52;;
51020;SDS011;38907;45.562;8.856;2022-12-18T05:24:31;61.67;;;25.55;;
51020;SDS011;38907;45.562;8.856;2022-12-18T05:29:34;59.88;;;24.90;;
51020;SDS011;38907;45.562;8.856;2022-12-18T05:34:36;57.20;;;25.27;;
51020;SDS011;38907;45.562;8.856;2022-12-18T05:39:38;50.03;;;24.15;;
51020;SDS011;38907;45.562;8.856;2022-12-18T05:44:41;51.97;;;24.65;;
51020;SDS011;38907;45.562;8.856;2022-12-18T05:49:44;57.05;;;25.40;;
51020;SDS011;38907;45.562;8.856;2022-12-18T05:54:45;57.38;;;24.90;;
51020;SDS011;38907;45.562;8.856;2022-12-18T05:59:49;64.90;;;27.42;;
51020;SDS011;38907;45.562;8.856;2022-12-18T06:04:51;73.72;;;28.42;;
51020;SDS011;38907;45.562;8.856;2022-12-18T06:09:52;79.20;;;28.33;;
51020;SDS011;38907;45.562;8.856;2022-12-18T06:14:57;76.22;;;29.30;;
51020;SDS011;38907;45.562;8.856;2022-12-18T06:19:59;86.03;;;31.50;;
51020;SDS011;38907;45.562;8.856;2022-12-18T06:25:02;84.13;;;30.90;;
51020;SDS011;38907;45.562;8.856;2022-12-18T06:30:06;93.38;;;33.08;;
51020;SDS011;38907;45.562;8.856;2022-12-18T06:35:09;98.90;;;34.70;;
51020;SDS011;38907;45.562;8.856;2022-12-18T06:40:12;104.00;;;34.65;;
51020;SDS011;38907;45.562;8.856;2022-12-18T06:45:17;134.73;;;35.27;;
51020;SDS011;38907;45.562;8.856;2022-12-18T06:50:19;110.95;;;37.45;;
51020;SDS011;38907;45.562;8.856;2022-12-18T06:55:20;107.82;;;36.83;;
51020;SDS011;38907;45.562;8.856;2022-12-18T07:00:24;119.28;;;36.00;;
51020;SDS011;38907;45.562;8.856;2022-12-18T07:05:26;111.15;;;34.97;;
51020;SDS011;38907;45.562;8.856;2022-12-18T07:10:27;100.00;;;34.60;;
51020;SDS011;38907;45.562;8.856;2022-12-18T07:15:31;122.13;;;36.88;;
51020;SDS011;38907;45.562;8.856;2022-12-18T07:20:32;104.40;;;36.13;;
51020;SDS011;38907;45.562;8.856;2022-12-18T07:25:34;101.72;;;35.92;;
51020;SDS011;38907;45.562;8.856;2022-12-18T07:30:38;92.70;;;35.35;;
51020;SDS011;38907;45.562;8.856;2022-12-18T07:35:40;118.32;;;37.40;;
51020;SDS011;38907;45.562;8.856;2022-12-18T07:40:42;98.18;;;36.50;;
51020;SDS011;38907;45.562;8.856;2022-12-18T07:45:48;104.20;;;35.97;;
51020;SDS011;38907;45.562;8.856;2022-12-18T07:50:50;110.50;;;37.10;;
51020;SDS011;38907;45.562;8.856;2022-12-18T07:55:54;108.63;;;38.60;;
51020;SDS011;38907;45.562;8.856;2022-12-18T08:01:03;107.53;;;35.72;;
51020;SDS011;38907;45.562;8.856;2022-12-18T08:06:06;98.15;;;33.97;;
51020;SDS011;38907;45.562;8.856;2022-12-18T08:11:10;94.43;;;34.70;;
51020;SDS011;38907;45.562;8.856;2022-12-18T08:16:13;105.65;;;35.67;;
51020;SDS011;38907;45.562;8.856;2022-12-18T08:21:16;106.13;;;37.00;;
51020;SDS011;38907;45.562;8.856;2022-12-18T08:26:21;153.38;;;38.03;;
51020;SDS011;38907;45.562;8.856;2022-12-18T08:31:25;109.07;;;37.53;;
51020;SDS011;38907;45.562;8.856;2022-12-18T08:36:28;104.68;;;37.58;;
51020;SDS011;38907;45.562;8.856;2022-12-18T08:41:30;101.57;;;39.70;;
51020;SDS011;38907;45.562;8.856;2022-12-18T08:46:34;118.03;;;40.25;;
51020;SDS011;38907;45.562;8.856;2022-12-18T08:51:37;126.57;;;42.95;;
51020;SDS011;38907;45.562;8.856;2022-12-18T08:56:39;110.75;;;39.20;;
51020;SDS011;38907;45.562;8.856;2022-12-18T09:01:43;115.32;;;38.72;;
51020;SDS011;38907;45.562;8.856;2022-12-18T09:06:45;106.20;;;41.30;;
51020;SDS011;38907;45.562;8.856;2022-12-18T09:11:47;103.13;;;38.47;;
51020;SDS011;38907;45.562;8.856;2022-12-18T09:16:50;97.75;;;39.17;;
51020;SDS011;38907;45.562;8.856;2022-12-18T09:21:52;99.47;;;43.10;;
51020;SDS011;38907;45.562;8.856;2022-12-18T09:26:54;105.25;;;42.35;;
51020;SDS011;38907;45.562;8.856;2022-12-18T09:31:57;99.85;;;39.72;;
51020;SDS011;38907;45.562;8.856;2022-12-18T09:36:59;107.72;;;39.67;;
51020;SDS011;38907;45.562;8.856;2022-12-18T09:42:01;92.35;;;37.25;;
51020;SDS011;38907;45.562;8.856;2022-12-18T09:47:06;92.40;;;38.42;;
51020;SDS011;38907;45.562;8.856;2022-12-18T09:52:14;103.95;;;40.80;;
51020;SDS011;38907;45.562;8.856;2022-12-18T09:57:21;115.28;;;43.28;;
51020;SDS011;38907;45.562;8.856;2022-12-18T10:02:29;113.38;;;39.72;;
51020;SDS011;38907;45.562;8.856;2022-12-18T10:07:35;114.90;;;42.55;;
51020;SDS011;38907;45.562;8.856;2022-12-18T10:12:46;113.63;;;43.10;;
51020;SDS011;38907;45.562;8.856;2022-12-18T10:17:56;117.80;;;42.88;;
51020;SDS011;38907;45.562;8.856;2022-12-18T10:23:04;124.47;;;45.30;;
51020;SDS011;38907;45.562;8.856;2022-12-18T10:28:13;102.80;;;40.80;;
51020;SDS011;38907;45.562;8.856;2022-12-18T10:33:18;95.75;;;37.95;;
51020;SDS011;38907;45.562;8.856;2022-12-18T10:38:23;94.47;;;37.85;;
51020;SDS011;38907;45.562;8.856;2022-12-18T10:43:27;95.28;;;39.22;;
51020;SDS011;38907;45.562;8.856;2022-12-18T10:48:32;107.72;;;40.58;;
51020;SDS011;38907;45.562;8.856;2022-12-18T10:53:36;104.25;;;39.40;;
51020;SDS011;38907;45.562;8.856;2022-12-18T10:58:38;102.30;;;40.75;;
51020;SDS011;38907;45.562;8.856;2022-12-18T11:03:42;109.03;;;39.75;;
51020;SDS011;38907;45.562;8.856;2022-12-18T11:08:56;90.50;;;38.72;;
51020;SDS011;38907;45.562;8.856;2022-12-18T11:14:01;103.57;;;39.13;;
51020;SDS011;38907;45.562;8.856;2022-12-18T11:19:17;93.85;;;38.03;;
51020;SDS011;38907;45.562;8.856;2022-12-18T11:24:26;100.50;;;39.10;;
51020;SDS011;38907;45.562;8.856;2022-12-18T11:29:33;109.60;;;39.65;;
51020;SDS011;38907;45.562;8.856;2022-12-18T11:34:37;104.10;;;38.97;;
51020;SDS011;38907;45.562;8.856;2022-12-18T11:39:40;100.40;;;37.83;;
51020;SDS011;38907;45.562;8.856;2022-12-18T11:44:48;90.30;;;35.15;;
51020;SDS011;38907;45.562;8.856;2022-12-18T11:49:53;79.13;;;33.45;;
51020;SDS011;38907;45.562;8.856;2022-12-18T11:55:00;75.95;;;32.25;;
51020;SDS011;38907;45.562;8.856;2022-12-18T12:00:11;72.07;;;32.13;;
51020;SDS011;38907;45.562;8.856;2022-12-18T12:23:30;68.40;;;30.55;;
51020;SDS011;38907;45.562;8.856;2022-12-18T12:28:54;75.00;;;30.40;;
51020;SDS011;38907;45.562;8.856;2022-12-18T12:34:05;68.55;;;30.38;;
51020;SDS011;38907;45.562;8.856;2022-12-18T12:39:14;68.80;;;30.13;;
51020;SDS011;38907;45.562;8.856;2022-12-18T12:44:23;74.88;;;31.15;;
51020;SDS011;38907;45.562;8.856;2022-12-18T12:49:30;69.65;;;32.72;;
51020;SDS011;38907;45.562;8.856;2022-12-18T12:54:36;67.50;;;31.17;;
51020;SDS011;38907;45.562;8.856;2022-12-18T12:59:40;72.32;;;31.85;;
51020;SDS011;38907;45.562;8.856;2022-12-18T13:04:49;61.70;;;29.15;;
51020;SDS011;38907;45.562;8.856;2022-12-18T13:10:22;60.25;;;30.52;;
51020;SDS011;38907;45.562;8.856;2022-12-18T13:15:31;60.70;;;29.42;;
51020;SDS011;38907;45.562;8.856;2022-12-18T13:20:38;62.58;;;30.35;;
51020;SDS011;38907;45.562;8.856;2022-12-18T13:25:43;67.22;;;32.17;;
51020;SDS011;38907;45.562;8.856;2022-12-18T13:30:49;56.78;;;28.92;;
51020;SDS011;38907;45.562;8.856;2022-12-18T13:35:53;70.68;;;32.13;;
51020;SDS011;38907;45.562;8.856;2022-12-18T13:41:20;64.70;;;32.58;;
51020;SDS011;38907;45.562;8.856;2022-12-18T13:46:26;58.85;;;28.75;;
51020;SDS011;38907;45.562;8.856;2022-12-18T13:51:31;67.53;;;32.40;;
51020;SDS011;38907;45.562;8.856;2022-12-18T13:56:42;66.72;;;30.80;;
51020;SDS011;38907;45.562;8.856;2022-12-18T14:01:46;71.40;;;32.35;;
51020;SDS011;38907;45.562;8.856;2022-12-18T14:06:52;64.00;;;31.90;;
51020;SDS011;38907;45.562;8.856;2022-12-18T14:11:58;77.53;;;34.00;;
51020;SDS011;38907;45.562;8.856;2022-12-18T14:17:19;81.70;;;36.67;;
51020;SDS011;38907;45.562;8.856;2022-12-18T14:22:21;85.30;;;35.78;;
51020;SDS011;38907;45.562;8.856;2022-12-18T14:27:29;81.53;;;37.13;;
51020;SDS011;38907;45.562;8.856;2022-12-18T14:32:31;78.90;;;33.28;;
51020;SDS011;38907;45.562;8.856;2022-12-18T14:37:32;81.88;;;35.50;;
51020;SDS011;38907;45.562;8.856;2022-12-18T14:42:36;83.85;;;36.83;;
51020;SDS011;38907;45.562;8.856;2022-12-18T14:47:38;80.45;;;33.40;;
51020;SDS011;38907;45.562;8.856;2022-12-18T14:52:43;75.28;;;32.58;;
51020;SDS011;38907;45.562;8.856;2022-12-18T14:57:47;78.25;;;33.90;;
51020;SDS011;38907;45.562;8.856;2022-12-18T15:02:52;84.30;;;34.25;;
51020;SDS011;38907;45.562;8.856;2022-12-18T15:07:56;83.47;;;35.53;;
51020;SDS011;38907;45.562;8.856;2022-12-18T15:13:07;82.43;;;33.63;;
51020;SDS011;38907;45.562;8.856;2022-12-18T15:18:18;82.28;;;32.92;;
51020;SDS011;38907;45.562;8.856;2022-12-18T15:23:22;79.80;;;32.42;;
51020;SDS011;38907;45.562;8.856;2022-12-18T15:28:29;79.28;;;34.38;;
51020;SDS011;38907;45.562;8.856;2022-12-18T15:33:36;86.68;;;33.03;;
51020;SDS011;38907;45.562;8.856;2022-12-18T15:38:40;84.72;;;33.15;;
51020;SDS011;38907;45.562;8.856;2022-12-18T15:43:43;76.28;;;33.58;;
51020;SDS011;38907;45.562;8.856;2022-12-18T15:48:46;71.65;;;30.88;;
51020;SDS011;38907;45.562;8.856;2022-12-18T15:53:50;86.90;;;34.65;;
51020;SDS011;38907;45.562;8.856;2022-12-18T15:58:55;74.60;;;33.45;;
51020;SDS011;38907;45.562;8.856;2022-12-18T16:08:59;81.22;;;33.92;;
51020;SDS011;38907;45.562;8.856;2022-12-18T16:14:02;72.13;;;31.15;;
51020;SDS011;38907;45.562;8.856;2022-12-18T16:19:05;83.13;;;31.80;;
51020;SDS011;38907;45.562;8.856;2022-12-18T16:24:11;80.10;;;32.65;;
51020;SDS011;38907;45.562;8.856;2022-12-18T16:29:17;90.47;;;32.75;;
51020;SDS011;38907;45.562;8.856;2022-12-18T16:34:25;92.05;;;34.17;;
51020;SDS011;38907;45.562;8.856;2022-12-18T16:44:32;88.68;;;34.13;;
51020;SDS011;38907;45.562;8.856;2022-12-18T16:49:34;93.28;;;34.13;;
51020;SDS011;38907;45.562;8.856;2022-12-18T16:54:36;92.65;;;36.33;;
51020;SDS011;38907;45.562;8.856;2022-12-18T16:59:39;117.95;;;35.42;;
51020;SDS011;38907;45.562;8.856;2022-12-18T17:04:41;101.05;;;35.55;;
51020;SDS011;38907;45.562;8.856;2022-12-18T17:09:43;86.82;;;34.80;;
51020;SDS011;38907;45.562;8.856;2022-12-18T17:14:46;94.78;;;36.95;;
51020;SDS011;38907;45.562;8.856;2022-12-18T17:19:50;98.30;;;35.38;;
51020;SDS011;38907;45.562;8.856;2022-12-18T17:30:01;92.32;;;35.20;;
51020;SDS011;38907;45.562;8.856;2022-12-18T17:35:04;93.78;;;36.15;;
51020;SDS011;38907;45.562;8.856;2022-12-18T17:40:06;145.90;;;38.67;;
51020;SDS011;38907;45.562;8.856;2022-12-18T17:45:11;79.15;;;31.20;;
51020;SDS011;38907;45.562;8.856;2022-12-18T17:50:14;90.28;;;33.55;;
51020;SDS011;38907;45.562;8.856;2022-12-18T17:55:16;82.27;;;35.03;;
51020;SDS011;38907;45.562;8.856;2022-12-18T18:00:19;80.70;;;31.70;;
51020;SDS011;38907;45.562;8.856;2022-12-18T18:05:21;65.25;;;29.75;;
51020;SDS011;38907;45.562;8.856;2022-12-18T18:10:23;65.82;;;29.52;;
51020;SDS011;38907;45.562;8.856;2022-12-18T18:15:27;180.52;;;35.22;;
51020;SDS011;38907;45.562;8.856;2022-12-18T18:20:28;88.82;;;34.47;;
51020;SDS011;38907;45.562;8.856;2022-12-18T18:25:34;82.60;;;33.90;;
51020;SDS011;38907;45.562;8.856;2022-12-18T18:30:37;78.43;;;32.75;;
51020;SDS011;38907;45.562;8.856;2022-12-18T18:35:40;197.50;;;38.70;;
51020;SDS011;38907;45.562;8.856;2022-12-18T18:40:43;100.13;;;34.30;;
51020;SDS011;38907;45.562;8.856;2022-12-18T18:45:46;93.25;;;32.28;;
51020;SDS011;38907;45.562;8.856;2022-12-18T18:50:54;118.10;;;31.67;;
51020;SDS011;38907;45.562;8.856;2022-12-18T18:55:57;75.40;;;30.98;;
51020;SDS011;38907;45.562;8.856;2022-12-18T19:01:01;113.97;;;33.23;;
51020;SDS011;38907;45.562;8.856;2022-12-18T19:06:05;116.15;;;35.50;;
51020;SDS011;38907;45.562;8.856;2022-12-18T19:11:08;137.95;;;34.90;;
51020;SDS011;38907;45.562;8.856;2022-12-18T19:16:32;115.93;;;32.15;;
51020;SDS011;38907;45.562;8.856;2022-12-18T19:21:34;138.07;;;37.03;;
51020;SDS011;38907;45.562;8.856;2022-12-18T19:26:37;88.80;;;35.65;;
51020;SDS011;38907;45.562;8.856;2022-12-18T19:31:40;103.47;;;34.55;;
51020;SDS011;38907;45.562;8.856;2022-12-18T19:36:42;88.90;;;33.75;;
51020;SDS011;38907;45.562;8.856;2022-12-18T19:41:44;137.18;;;42.58;;
51020;SDS011;38907;45.562;8.856;2022-12-18T19:46:49;88.20;;;35.17;;
51020;SDS011;38907;45.562;8.856;2022-12-18T19:51:51;103.43;;;35.33;;
51020;SDS011;38907;45.562;8.856;2022-12-18T19:56:53;125.90;;;30.38;;
51020;SDS011;38907;45.562;8.856;2022-12-18T20:01:57;95.03;;;30.03;;
51020;SDS011;38907;45.562;8.856;2022-12-18T20:07:00;74.13;;;31.83;;
51020;SDS011;38907;45.562;8.856;2022-12-18T20:12:02;73.38;;;35.38;;
51020;SDS011;38907;45.562;8.856;2022-12-18T20:17:06;85.43;;;33.83;;
51020;SDS011;38907;45.562;8.856;2022-12-18T20:22:08;63.67;;;32.65;;
51020;SDS011;38907;45.562;8.856;2022-12-18T20:27:10;60.85;;;31.33;;
51020;SDS011;38907;45.562;8.856;2022-12-18T20:32:13;61.88;;;32.30;;
51020;SDS011;38907;45.562;8.856;2022-12-18T20:37:15;65.22;;;31.67;;
51020;SDS011;38907;45.562;8.856;2022-12-18T20:42:17;72.68;;;35.50;;
51020;SDS011;38907;45.562;8.856;2022-12-18T20:47:20;70.82;;;33.85;;
51020;SDS011;38907;45.562;8.856;2022-12-18T20:52:22;77.03;;;34.40;;
51020;SDS011;38907;45.562;8.856;2022-12-18T20:57:25;71.47;;;34.70;;
51020;SDS011;38907;45.562;8.856;2022-12-18T21:02:28;62.97;;;33.75;;
51020;SDS011;38907;45.562;8.856;2022-12-18T21:07:30;62.63;;;32.08;;
51020;SDS011;38907;45.562;8.856;2022-12-18T21:12:32;72.53;;;34.60;;
51020;SDS011;38907;45.562;8.856;2022-12-18T21:17:36;60.38;;;33.08;;
51020;SDS011;38907;45.562;8.856;2022-12-18T21:22:39;73.75;;;35.28;;
51020;SDS011;38907;45.562;8.856;2022-12-18T21:27:41;72.57;;;34.67;;
51020;SDS011;38907;45.562;8.856;2022-12-18T21:32:45;67.13;;;35.38;;
51020;SDS011;38907;45.562;8.856;2022-12-18T21:37:47;67.90;;;35.10;;
51020;SDS011;38907;45.562;8.856;2022-12-18T21:42:48;70.90;;;33.47;;
51020;SDS011;38907;45.562;8.856;2022-12-18T21:48:17;61.08;;;32.25;;
51020;SDS011;38907;45.562;8.856;2022-12-18T21:53:19;69.20;;;34.58;;
51020;SDS011;38907;45.562;8.856;2022-12-18T21:58:21;62.53;;;33.10;;
51020;SDS011;38907;45.562;8.856;2022-12-18T22:03:25;74.38;;;35.00;;
51020;SDS011;38907;45.562;8.856;2022-12-18T22:08:26;80.78;;;35.70;;
51020;SDS011;38907;45.562;8.856;2022-12-18T22:13:28;74.93;;;35.20;;
51020;SDS011;38907;45.562;8.856;2022-12-18T22:18:31;74.90;;;34.70;;
51020;SDS011;38907;45.562;8.856;2022-12-18T22:23:34;79.15;;;36.03;;
51020;SDS011;38907;45.562;8.856;2022-12-18T22:28:35;85.03;;;35.63;;
51020;SDS011;38907;45.562;8.856;2022-12-18T22:33:56;72.28;;;34.08;;
51020;SDS011;38907;45.562;8.856;2022-12-18T22:38:58;78.07;;;31.30;;
51020;SDS011;38907;45.562;8.856;2022-12-18T22:44:00;90.03;;;36.90;;
51020;SDS011;38907;45.562;8.856;2022-12-18T22:49:03;81.53;;;34.58;;
51020;SDS011;38907;45.562;8.856;2022-12-18T22:54:05;76.68;;;33.28;;
51020;SDS011;38907;45.562;8.856;2022-12-18T22:59:07;83.05;;;34.30;;
51020;SDS011;38907;45.562;8.856;2022-12-18T23:04:16;87.10;;;36.80;;
51020;SDS011;38907;45.562;8.856;2022-12-18T23:09:18;79.43;;;35.67;;
51020;SDS011;38907;45.562;8.856;2022-12-18T23:14:20;73.82;;;34.65;;
51020;SDS011;38907;45.562;8.856;2022-12-18T23:19:23;74.40;;;34.35;;
51020;SDS011;38907;45.562;8.856;2022-12-18T23:24:25;69.30;;;32.30;;
51020;SDS011;38907;45.562;8.856;2022-12-18T23:29:27;83.68;;;34.55;;
51020;SDS011;38907;45.562;8.856;2022-12-18T23:34:31;68.28;;;31.80;;
51020;SDS011;38907;45.562;8.856;2022-12-18T23:39:33;78.68;;;33.53;;
51020;SDS011;38907;45.562;8.856;2022-12-18T23:44:34;70.50;;;32.38;;
51020;SDS011;38907;45.562;8.856;2022-12-18T23:49:38;75.97;;;33.42;;
51020;SDS011;38907;45.562;8.856;2022-12-18T23:54:39;75.32;;;33.17;;
51020;SDS011;38907;45.562;8.856;2022-12-18T23:59:41;74.70;;;32.58;;
